createdAt,value
2017-12-04T00:00:51.244Z,54.27
2017-12-04T00:03:19.259Z,54.97
2017-12-04T00:05:47.542Z,43.97
2017-12-04T00:08:16.618Z,42.60
2017-12-04T00:10:44.911Z,48.73
2017-12-04T00:13:13.196Z,43.50
2017-12-04T00:15:41.429Z,49.17
2017-12-04T00:18:11.424Z,44.93
2017-12-04T00:20:39.724Z,46.00
2017-12-04T00:23:07.999Z,40.73
2017-12-04T00:25:37.014Z,43.93
2017-12-04T00:28:05.258Z,54.67
2017-12-04T00:30:34.275Z,45.50
2017-12-04T00:33:02.531Z,45.90
2017-12-04T00:35:31.559Z,50.70
2017-12-04T00:37:59.831Z,45.70
2017-12-04T00:40:28.102Z,47.60
2017-12-04T00:42:56.346Z,51.27
2017-12-04T00:45:24.602Z,43.50
2017-12-04T00:47:52.875Z,36.87
2017-12-04T00:50:21.146Z,40.60
2017-12-04T00:52:49.388Z,43.13
2017-12-04T00:55:17.651Z,40.93
2017-12-04T00:57:46.686Z,53.23
2017-12-04T01:00:14.957Z,49.57
2017-12-04T01:02:43.274Z,45.50
2017-12-04T01:05:11.564Z,36.73
2017-12-04T01:07:40.630Z,57.53
2017-12-04T01:10:09.882Z,47.40
2017-12-04T01:12:38.166Z,54.93
2017-12-04T01:15:06.453Z,50.07
2017-12-04T01:17:34.721Z,49.70
2017-12-04T01:20:02.999Z,56.20
2017-12-04T01:22:32.082Z,48.47
2017-12-04T01:25:00.331Z,55.40
2017-12-04T01:27:28.608Z,51.13
2017-12-04T01:29:56.857Z,58.90
2017-12-04T01:32:25.095Z,45.27
2017-12-04T01:34:53.346Z,47.60
2017-12-04T01:37:22.795Z,53.97
2017-12-04T01:39:51.050Z,48.93
2017-12-04T01:42:19.322Z,53.47
2017-12-04T01:44:47.597Z,45.47
2017-12-04T01:47:15.870Z,72.57
2017-12-04T01:49:44.106Z,58.80
2017-12-04T01:52:12.388Z,55.10
2017-12-04T01:54:40.615Z,47.63
2017-12-04T01:57:08.887Z,53.30
2017-12-04T01:59:37.876Z,53.67
2017-12-04T02:02:06.943Z,54.67
2017-12-04T02:04:35.186Z,58.40
2017-12-04T02:07:03.481Z,54.40
2017-12-04T02:09:31.706Z,73.63
2017-12-04T02:12:00.733Z,71.37
2017-12-04T02:14:30.641Z,65.57
2017-12-04T02:16:58.886Z,68.40
2017-12-04T02:19:27.931Z,75.83
2017-12-04T02:21:56.171Z,87.03
2017-12-04T02:24:24.444Z,87.80
2017-12-04T02:26:52.739Z,72.60
2017-12-04T02:29:21.005Z,88.33
2017-12-04T02:31:49.244Z,78.77
2017-12-04T02:34:18.280Z,76.33
2017-12-04T02:36:47.279Z,106.13
2017-12-04T02:39:15.530Z,79.77
2017-12-04T02:41:44.541Z,87.27
2017-12-04T02:44:12.828Z,81.90
2017-12-04T02:46:41.082Z,79.33
2017-12-04T02:49:10.091Z,79.03
2017-12-04T02:51:38.357Z,101.60
2017-12-04T02:54:07.371Z,98.33
2017-12-04T02:56:35.639Z,85.40
2017-12-04T02:59:03.926Z,83.77
2017-12-04T03:01:32.198Z,89.87
2017-12-04T03:04:01.185Z,78.57
2017-12-04T03:06:29.472Z,90.53
2017-12-04T03:08:57.753Z,87.03
2017-12-04T03:11:26.769Z,73.30
2017-12-04T03:13:55.013Z,82.97
2017-12-04T03:16:23.861Z,91.23
2017-12-04T03:18:52.914Z,82.77
2017-12-04T03:21:21.155Z,100.67
2017-12-04T03:23:50.194Z,65.80
2017-12-04T03:26:18.460Z,79.93
2017-12-04T03:28:46.751Z,88.97
2017-12-04T03:31:14.999Z,72.37
2017-12-04T03:33:44.006Z,75.40
2017-12-04T03:36:12.282Z,90.93
2017-12-04T03:38:40.621Z,76.53
2017-12-04T03:41:08.899Z,98.30
2017-12-04T03:43:37.215Z,64.13
2017-12-04T03:46:05.518Z,77.23
2017-12-04T03:48:33.781Z,105.83
2017-12-04T03:51:02.029Z,92.47
2017-12-04T03:53:31.031Z,95.60
2017-12-04T03:56:00.063Z,88.10
2017-12-04T03:58:28.315Z,96.20
2017-12-04T04:00:56.560Z,91.27
2017-12-04T04:03:24.828Z,69.67
2017-12-04T04:05:53.066Z,70.53
2017-12-04T04:08:21.310Z,74.73
2017-12-04T04:10:49.562Z,86.43
2017-12-04T04:13:17.799Z,87.93
2017-12-04T04:15:46.082Z,74.77
2017-12-04T04:18:14.319Z,77.43
2017-12-04T04:20:43.368Z,71.57
2017-12-04T04:23:11.631Z,91.13
2017-12-04T04:25:39.887Z,78.50
2017-12-04T04:28:08.152Z,79.37
2017-12-04T04:30:37.195Z,73.87
2017-12-04T04:33:05.441Z,69.10
2017-12-04T04:35:33.678Z,76.13
2017-12-04T04:38:01.946Z,62.13
2017-12-04T04:40:30.182Z,74.90
2017-12-04T04:42:58.460Z,69.77
2017-12-04T04:45:27.525Z,73.50
2017-12-04T04:47:56.553Z,75.00
2017-12-04T04:50:24.823Z,75.70
2017-12-04T04:52:53.141Z,83.87
2017-12-04T04:55:21.362Z,96.17
2017-12-04T04:57:49.624Z,82.00
2017-12-04T05:00:17.956Z,84.07
2017-12-04T05:02:46.221Z,85.77
2017-12-04T05:05:14.515Z,70.23
2017-12-04T05:07:42.805Z,100.23
2017-12-04T05:10:11.883Z,79.63
2017-12-04T05:12:40.127Z,95.50
2017-12-04T05:15:08.377Z,98.10
2017-12-04T05:17:37.444Z,88.57
2017-12-04T05:20:05.691Z,103.30
2017-12-04T05:22:34.602Z,100.00
2017-12-04T05:25:02.878Z,89.53
2017-12-04T05:27:31.231Z,90.40
2017-12-04T05:29:59.607Z,80.60
2017-12-04T05:32:27.810Z,82.50
2017-12-04T05:34:56.073Z,73.30
2017-12-04T05:37:24.372Z,93.43
2017-12-04T05:39:52.634Z,78.90
2017-12-04T05:42:20.863Z,69.87
2017-12-04T05:44:49.933Z,79.23
2017-12-04T05:47:18.874Z,85.03
2017-12-04T05:49:47.886Z,88.80
2017-12-04T05:52:16.147Z,87.97
2017-12-04T05:54:45.148Z,103.93
2017-12-04T05:57:13.399Z,98.20
2017-12-04T05:59:42.490Z,113.37
2017-12-04T06:02:11.531Z,82.53
2017-12-04T06:04:39.824Z,109.57
2017-12-04T06:07:08.093Z,111.93
2017-12-04T06:09:36.358Z,103.33
2017-12-04T06:12:04.646Z,117.37
2017-12-04T06:14:32.940Z,95.97
2017-12-04T06:17:01.258Z,106.83
2017-12-04T06:19:30.333Z,96.17
2017-12-04T06:21:58.592Z,112.13
2017-12-04T06:24:26.849Z,116.70
2017-12-04T06:26:55.132Z,86.67
2017-12-04T06:29:23.419Z,84.93
2017-12-04T06:31:51.748Z,97.50
2017-12-04T06:34:20.886Z,84.10
2017-12-04T06:36:49.143Z,92.30
2017-12-04T06:39:17.480Z,90.03
2017-12-04T06:41:45.759Z,91.80
2017-12-04T06:44:14.057Z,90.90
2017-12-04T06:46:42.363Z,133.60
2017-12-04T06:49:11.552Z,133.57
2017-12-04T06:51:39.866Z,100.07
2017-12-04T06:54:08.152Z,142.97
2017-12-04T06:56:36.479Z,123.70
2017-12-04T06:59:05.484Z,92.53
2017-12-04T07:01:34.564Z,121.17
2017-12-04T07:04:03.647Z,106.90
2017-12-04T07:06:31.943Z,120.30
2017-12-04T07:09:00.248Z,100.83
2017-12-04T07:11:28.558Z,109.80
2017-12-04T07:13:56.803Z,108.47
2017-12-04T07:16:25.080Z,116.27
2017-12-04T07:18:53.508Z,113.10
2017-12-04T07:21:21.846Z,98.47
2017-12-04T07:23:50.071Z,122.03
2017-12-04T07:26:19.171Z,117.07
2017-12-04T07:28:48.228Z,123.47
2017-12-04T07:31:16.479Z,118.87
2017-12-04T07:33:45.164Z,118.47
2017-12-04T07:36:13.419Z,103.00
2017-12-04T07:38:42.599Z,110.10
2017-12-04T07:41:11.693Z,128.33
2017-12-04T07:43:39.975Z,107.43
2017-12-04T07:46:08.292Z,76.50
2017-12-04T07:48:37.318Z,89.63
2017-12-04T07:51:05.578Z,94.60
2017-12-04T07:53:33.883Z,99.67
2017-12-04T07:56:02.118Z,137.73
2017-12-04T07:58:30.429Z,118.57
2017-12-04T08:00:59.248Z,104.97
2017-12-04T08:03:27.534Z,106.43
2017-12-04T08:05:56.627Z,105.50
2017-12-04T08:08:25.648Z,89.93
2017-12-04T08:10:53.911Z,84.77
2017-12-04T08:13:22.247Z,79.00
2017-12-04T08:15:50.728Z,90.17
2017-12-04T08:18:19.025Z,74.80
2017-12-04T08:20:47.287Z,80.20
2017-12-04T08:23:15.787Z,98.07
2017-12-04T08:25:44.851Z,100.20
2017-12-04T08:28:13.303Z,97.50
2017-12-04T08:30:41.646Z,101.77
2017-12-04T08:33:09.919Z,95.47
2017-12-04T08:35:39.058Z,87.13
2017-12-04T08:38:07.432Z,101.53
2017-12-04T08:40:35.663Z,80.20
2017-12-04T08:43:03.915Z,73.37
2017-12-04T08:45:32.282Z,79.77
2017-12-04T08:48:02.635Z,109.00
2017-12-04T08:50:34.416Z,84.77
2017-12-04T08:53:05.399Z,84.63
2017-12-04T08:55:37.295Z,87.50
2017-12-04T08:58:07.788Z,95.13
2017-12-04T09:00:36.330Z,90.13
2017-12-04T09:03:07.208Z,88.40
2017-12-04T09:05:36.239Z,111.17
2017-12-04T09:08:05.270Z,82.83
2017-12-04T09:10:36.491Z,98.07
2017-12-04T09:13:07.246Z,73.10
2017-12-04T09:15:37.142Z,84.17
2017-12-04T09:18:09.825Z,90.17
2017-12-04T09:20:38.096Z,73.57
2017-12-04T09:23:10.655Z,74.50
2017-12-04T09:25:41.610Z,76.40
2017-12-04T09:28:13.692Z,71.17
2017-12-04T09:30:42.065Z,71.93
2017-12-04T09:33:12.812Z,67.87
2017-12-04T09:35:44.495Z,74.63
2017-12-04T09:38:15.957Z,83.47
2017-12-04T09:40:45.316Z,106.40
2017-12-04T09:43:13.794Z,83.20
2017-12-04T09:45:42.139Z,70.00
2017-12-04T09:48:10.409Z,66.43
2017-12-04T09:50:38.758Z,80.43
2017-12-04T09:53:07.825Z,65.20
2017-12-04T09:55:36.193Z,65.03
2017-12-04T09:58:05.595Z,81.40
2017-12-04T10:00:34.814Z,85.23
2017-12-04T10:03:03.255Z,63.77
2017-12-04T10:05:33.225Z,73.70
2017-12-04T10:08:02.396Z,63.50
2017-12-04T10:10:31.838Z,68.80
2017-12-04T10:13:01.223Z,83.90
2017-12-04T10:15:30.419Z,50.33
2017-12-04T10:18:00.567Z,56.27
2017-12-04T10:20:30.359Z,65.63
2017-12-04T10:22:59.504Z,61.40
2017-12-04T10:25:28.523Z,47.20
2017-12-04T10:28:04.254Z,47.33
2017-12-04T10:30:36.226Z,47.60
2017-12-04T10:33:08.579Z,52.47
2017-12-04T10:35:41.846Z,60.53
2017-12-04T10:38:12.607Z,49.07
2017-12-04T10:40:42.599Z,54.73
2017-12-04T10:43:12.214Z,64.40
2017-12-04T10:45:41.647Z,58.33
2017-12-04T10:48:12.285Z,65.43
2017-12-04T10:50:42.140Z,69.50
2017-12-04T10:53:12.274Z,65.53
2017-12-04T10:55:42.092Z,62.03
2017-12-04T10:58:12.479Z,82.13
2017-12-04T11:00:43.656Z,61.53
2017-12-04T11:03:13.784Z,61.07
2017-12-04T11:05:42.838Z,54.83
2017-12-04T11:08:11.112Z,67.60
2017-12-04T11:10:40.020Z,51.30
2017-12-04T11:13:08.320Z,48.20
2017-12-04T11:15:37.334Z,75.17
2017-12-04T11:18:05.916Z,69.90
2017-12-04T11:20:35.038Z,39.47
2017-12-04T11:23:04.125Z,51.40
2017-12-04T11:25:34.539Z,52.63
2017-12-04T11:28:06.640Z,51.40
2017-12-04T11:30:36.999Z,49.17
2017-12-04T11:33:06.270Z,42.10
2017-12-04T11:35:36.962Z,54.43
2017-12-04T11:38:06.321Z,35.43
2017-12-04T11:40:35.353Z,55.53
2017-12-04T11:43:03.609Z,54.57
2017-12-04T11:45:35.067Z,48.67
2017-12-04T11:48:03.437Z,52.63
2017-12-04T11:50:31.700Z,47.83
2017-12-04T11:52:59.998Z,59.73
2017-12-04T11:55:28.363Z,65.30
2017-12-04T11:57:57.010Z,68.70
2017-12-04T12:00:25.835Z,48.10
2017-12-04T12:03:01.062Z,59.60
2017-12-04T12:05:34.662Z,109.20
2017-12-04T12:08:03.595Z,52.37
2017-12-04T12:10:31.873Z,56.77
2017-12-04T12:13:00.223Z,46.83
2017-12-04T12:15:29.109Z,41.60
2017-12-04T12:17:57.411Z,48.77
2017-12-04T12:20:25.725Z,36.47
2017-12-04T12:22:54.914Z,46.33
2017-12-04T12:25:26.017Z,34.87
2017-12-04T12:27:54.937Z,42.83
2017-12-04T12:30:25.533Z,31.70
2017-12-04T12:32:54.691Z,31.30
2017-12-04T12:35:24.443Z,28.00
2017-12-04T12:37:52.804Z,20.40
2017-12-04T12:40:21.019Z,32.23
2017-12-04T12:42:49.280Z,25.23
2017-12-04T12:45:18.182Z,25.80
2017-12-04T12:47:47.474Z,29.87
2017-12-04T12:50:16.436Z,25.23
2017-12-04T12:52:44.723Z,31.97
2017-12-04T12:55:13.811Z,23.63
2017-12-04T12:57:43.300Z,26.97
2017-12-04T13:00:12.909Z,24.60
2017-12-04T13:02:41.962Z,34.00
2017-12-04T13:05:10.257Z,22.27
2017-12-04T13:07:39.888Z,32.63
2017-12-04T13:10:09.247Z,23.97
2017-12-04T13:12:39.431Z,38.97
2017-12-04T13:15:07.656Z,20.17
2017-12-04T13:17:36.786Z,22.43
2017-12-04T13:20:05.679Z,33.17
2017-12-04T13:22:34.709Z,20.80
2017-12-04T13:25:03.320Z,25.57
2017-12-04T13:27:33.490Z,25.97
2017-12-04T13:30:02.542Z,32.77
2017-12-04T13:32:42.681Z,32.63
2017-12-04T13:35:23.648Z,31.43
2017-12-04T13:37:54.342Z,28.80
2017-12-04T13:40:23.538Z,22.37
2017-12-04T13:42:53.287Z,37.87
2017-12-04T13:45:21.876Z,36.20
2017-12-04T13:47:51.422Z,21.10
2017-12-04T13:50:20.963Z,46.90
2017-12-04T13:52:50.017Z,22.50
2017-12-04T13:55:20.489Z,28.07
2017-12-04T13:57:49.703Z,24.10
2017-12-04T14:00:17.931Z,21.07
2017-12-04T14:02:48.354Z,15.77
2017-12-04T14:05:16.629Z,33.90
2017-12-04T14:07:45.770Z,26.50
2017-12-04T14:10:14.800Z,12.70
2017-12-04T14:12:44.228Z,32.27
2017-12-04T14:15:12.528Z,18.30
2017-12-04T14:17:41.387Z,23.37
2017-12-04T14:20:10.567Z,105.60
2017-12-04T14:22:38.853Z,49.50
2017-12-04T14:25:09.328Z,30.03
2017-12-04T14:27:37.589Z,223.40
2017-12-04T14:30:06.830Z,44.53
2017-12-04T14:32:35.491Z,53.23
2017-12-04T14:35:03.744Z,41.37
2017-12-04T14:37:32.174Z,53.03
2017-12-04T14:40:02.814Z,40.10
2017-12-04T14:42:32.505Z,35.03
2017-12-04T14:45:01.555Z,40.17
2017-12-04T14:47:32.259Z,37.03
2017-12-04T14:50:01.220Z,40.00
2017-12-04T14:52:31.190Z,57.00
2017-12-04T14:55:00.033Z,48.83
2017-12-04T14:57:29.123Z,43.70
2017-12-04T14:59:58.207Z,50.67
2017-12-04T15:02:26.634Z,33.33
2017-12-04T15:04:55.792Z,46.27
2017-12-04T15:07:24.082Z,37.80
2017-12-04T15:09:52.558Z,32.13
2017-12-04T15:12:21.287Z,43.00
2017-12-04T15:14:50.463Z,42.70
2017-12-04T15:17:19.619Z,40.50
2017-12-04T15:19:48.210Z,40.33
2017-12-04T15:22:16.588Z,30.50
2017-12-04T15:24:45.656Z,46.40
2017-12-04T15:27:13.938Z,50.83
2017-12-04T15:29:43.196Z,45.67
2017-12-04T15:32:12.428Z,44.63
2017-12-04T15:34:40.772Z,45.03
2017-12-04T15:37:09.109Z,40.13
2017-12-04T15:39:37.425Z,37.53
2017-12-04T15:42:06.213Z,41.03
2017-12-04T15:44:36.032Z,51.37
2017-12-04T15:47:07.073Z,34.27
2017-12-04T15:49:35.351Z,34.90
2017-12-04T15:52:03.644Z,53.63
2017-12-04T15:54:31.960Z,50.73
2017-12-04T15:57:01.209Z,48.23
2017-12-04T15:59:31.999Z,38.20
2017-12-04T16:02:01.108Z,46.17
2017-12-04T16:04:29.506Z,43.37
2017-12-04T16:06:59.532Z,50.60
2017-12-04T16:09:29.149Z,38.13
2017-12-04T16:11:59.029Z,41.73
2017-12-04T16:14:28.891Z,46.93
2017-12-04T16:16:57.582Z,36.80
2017-12-04T16:19:27.211Z,30.03
2017-12-04T16:21:56.046Z,26.43
2017-12-04T16:24:27.767Z,44.70
2017-12-04T16:26:58.440Z,26.60
2017-12-04T16:29:27.139Z,26.60
2017-12-04T16:31:56.901Z,38.77
2017-12-04T16:34:27.592Z,39.43
2017-12-04T16:36:57.290Z,34.50
2017-12-04T16:39:25.536Z,38.20
2017-12-04T16:41:54.744Z,34.03
2017-12-04T16:44:24.981Z,32.60
2017-12-04T16:46:54.166Z,38.50
2017-12-04T16:49:23.306Z,26.90
2017-12-04T16:51:51.596Z,36.40
2017-12-04T16:54:23.925Z,31.20
2017-12-04T16:56:54.957Z,32.30
2017-12-04T16:59:24.288Z,46.50
2017-12-04T17:01:52.735Z,38.63
2017-12-04T17:04:22.562Z,26.77
2017-12-04T17:06:53.247Z,39.87
2017-12-04T17:09:22.817Z,29.10
2017-12-04T17:11:52.101Z,31.10
2017-12-04T17:14:22.573Z,26.77
2017-12-04T17:16:51.684Z,31.80
2017-12-04T17:19:20.749Z,31.80
2017-12-04T17:21:50.017Z,36.77
2017-12-04T17:24:19.303Z,26.20
2017-12-04T17:26:47.658Z,37.97
2017-12-04T17:29:16.992Z,39.20
2017-12-04T17:31:45.363Z,38.10
2017-12-04T17:34:13.778Z,29.90
2017-12-04T17:36:42.085Z,39.07
2017-12-04T17:39:11.304Z,54.83
2017-12-04T17:41:43.370Z,37.50
2017-12-04T17:44:17.327Z,38.53
2017-12-04T17:46:49.010Z,50.00
2017-12-04T17:49:20.315Z,65.53
2017-12-04T17:51:50.992Z,45.00
2017-12-04T17:54:20.692Z,35.10
2017-12-04T17:56:51.547Z,50.20
2017-12-04T17:59:21.973Z,76.00
2017-12-04T18:01:54.971Z,33.13
2017-12-04T18:04:23.370Z,43.33
2017-12-04T18:06:53.264Z,48.77
2017-12-04T18:09:22.643Z,42.13
2017-12-04T18:11:54.197Z,54.40
2017-12-04T18:14:23.777Z,45.03
2017-12-04T18:16:53.615Z,61.60
2017-12-04T18:19:24.396Z,56.77
2017-12-04T18:21:53.588Z,52.87
2017-12-04T18:24:21.930Z,50.97
2017-12-04T18:26:51.746Z,62.80
2017-12-04T18:29:20.125Z,45.43
2017-12-04T18:31:48.530Z,60.33
2017-12-04T18:34:17.610Z,43.83
2017-12-04T18:36:47.476Z,43.30
2017-12-04T18:39:16.008Z,41.23
2017-12-04T18:41:44.373Z,64.33
2017-12-04T18:44:12.696Z,81.10
2017-12-04T18:46:42.750Z,53.10
2017-12-04T18:49:11.774Z,60.53
2017-12-04T18:51:40.893Z,58.27
2017-12-04T18:54:09.951Z,57.03
2017-12-04T18:56:40.306Z,63.70
2017-12-04T18:59:08.750Z,55.47
2017-12-04T19:01:38.152Z,48.20
2017-12-04T19:04:06.588Z,52.47
2017-12-04T19:06:34.980Z,73.70
2017-12-04T19:09:04.511Z,67.40
2017-12-04T19:11:34.616Z,73.33
2017-12-04T19:14:02.935Z,54.50
2017-12-04T19:16:31.376Z,61.83
2017-12-04T19:19:01.135Z,60.70
2017-12-04T19:21:30.348Z,48.70
2017-12-04T19:24:00.209Z,65.13
2017-12-04T19:26:28.584Z,50.37
2017-12-04T19:28:57.898Z,67.80
2017-12-04T19:31:27.056Z,65.27
2017-12-04T19:33:57.473Z,47.03
2017-12-04T19:36:27.280Z,56.20
2017-12-04T19:38:55.963Z,52.43
2017-12-04T19:41:25.612Z,48.33
2017-12-04T19:43:55.606Z,49.33
2017-12-04T19:46:23.982Z,55.07
2017-12-04T19:48:52.495Z,40.90
2017-12-04T19:51:22.047Z,43.07
2017-12-04T19:53:56.898Z,37.27
2017-12-04T19:56:29.752Z,52.77
2017-12-04T19:59:01.494Z,61.57
2017-12-04T20:01:30.786Z,34.17
2017-12-04T20:03:59.917Z,50.37
2017-12-04T20:06:32.778Z,50.60
2017-12-04T20:09:01.173Z,33.13
2017-12-04T20:11:30.348Z,29.23
2017-12-04T20:13:59.055Z,40.93
2017-12-04T20:16:28.293Z,65.13
2017-12-04T20:18:57.591Z,44.33
2017-12-04T20:21:27.438Z,42.83
2017-12-04T20:23:55.777Z,45.80
2017-12-04T20:26:25.251Z,41.63
2017-12-04T20:28:54.624Z,60.53
2017-12-04T20:31:23.780Z,50.00
2017-12-04T20:33:52.165Z,40.33
2017-12-04T20:36:20.470Z,56.57
2017-12-04T20:38:49.695Z,65.43
2017-12-04T20:41:18.121Z,45.20
2017-12-04T20:43:46.394Z,44.80
2017-12-04T20:46:14.879Z,42.87
2017-12-04T20:48:43.996Z,36.97
2017-12-04T20:51:13.385Z,38.97
2017-12-04T20:53:42.709Z,58.10
2017-12-04T20:56:11.066Z,52.50
2017-12-04T20:58:40.246Z,59.57
2017-12-04T21:01:09.495Z,52.53
2017-12-04T21:03:38.577Z,48.67
2017-12-04T21:06:06.926Z,44.57
2017-12-04T21:08:48.121Z,53.03
2017-12-04T21:11:28.524Z,54.67
2017-12-04T21:14:09.884Z,43.13
2017-12-04T21:16:49.957Z,54.53
2017-12-04T21:19:18.414Z,51.50
2017-12-04T21:21:46.733Z,57.63
2017-12-04T21:24:15.136Z,41.10
2017-12-04T21:26:43.484Z,53.57
2017-12-04T21:29:11.769Z,44.07
2017-12-04T21:31:40.163Z,58.93
2017-12-04T21:34:09.308Z,49.30
2017-12-04T21:36:37.636Z,39.33
2017-12-04T21:39:06.036Z,52.93
2017-12-04T21:41:34.338Z,61.30
2017-12-04T21:44:04.546Z,45.47
2017-12-04T21:46:32.773Z,38.43
2017-12-04T21:49:01.111Z,51.93
2017-12-04T21:51:30.085Z,55.13
2017-12-04T21:53:59.241Z,37.83
2017-12-04T21:56:27.619Z,73.60
2017-12-04T21:58:56.061Z,58.33
2017-12-04T22:01:25.023Z,58.10
2017-12-04T22:03:53.330Z,52.77
2017-12-04T22:06:21.645Z,54.30
2017-12-04T22:08:50.015Z,48.53
2017-12-04T22:11:18.295Z,77.23
2017-12-04T22:13:46.659Z,72.23
2017-12-04T22:16:15.810Z,74.57
2017-12-04T22:18:44.161Z,97.97
2017-12-04T22:21:12.506Z,61.33
2017-12-04T22:23:40.851Z,78.70
2017-12-04T22:26:09.180Z,74.00
2017-12-04T22:28:38.231Z,62.23
2017-12-04T22:31:06.535Z,72.10
2017-12-04T22:33:34.878Z,70.03
2017-12-04T22:36:03.205Z,75.57
2017-12-04T22:38:31.520Z,80.17
2017-12-04T22:40:59.857Z,67.23
2017-12-04T22:43:28.188Z,62.20
2017-12-04T22:45:56.446Z,73.90
2017-12-04T22:48:24.734Z,68.80
2017-12-04T22:50:53.877Z,93.57
2017-12-04T22:53:23.666Z,86.53
2017-12-04T22:55:52.522Z,66.03
2017-12-04T22:58:20.790Z,68.63
2017-12-04T23:00:49.087Z,73.80
2017-12-04T23:03:17.398Z,68.27
2017-12-04T23:05:45.689Z,76.97
2017-12-04T23:08:14.015Z,70.70
2017-12-04T23:10:42.286Z,70.93
2017-12-04T23:13:12.105Z,69.10
2017-12-04T23:15:41.256Z,64.40
2017-12-04T23:18:09.564Z,69.97
2017-12-04T23:20:37.817Z,55.30
2017-12-04T23:23:06.258Z,78.43
2017-12-04T23:25:34.511Z,61.90
2017-12-04T23:28:02.791Z,52.60
2017-12-04T23:30:31.638Z,72.80
2017-12-04T23:33:00.709Z,67.27
2017-12-04T23:35:28.938Z,61.13
2017-12-04T23:37:58.324Z,83.97
2017-12-04T23:40:26.550Z,73.33
2017-12-04T23:42:54.832Z,75.97
2017-12-04T23:45:23.083Z,77.40
2017-12-04T23:47:51.380Z,71.20
2017-12-04T23:50:19.661Z,82.33
2017-12-04T23:52:47.899Z,69.13
2017-12-04T23:55:17.056Z,63.97
2017-12-04T23:57:45.308Z,61.83
